createdAt,value
2022-10-05T00:00:21.203Z,12.34
2022-10-05T00:02:52.360Z,12.32
2022-10-05T00:05:29.386Z,12.31
2022-10-05T00:08:01.858Z,12.31
2022-10-05T00:10:29.513Z,12.27
2022-10-05T00:12:56.617Z,12.23
2022-10-05T00:15:24.030Z,12.20
2022-10-05T00:17:52.604Z,12.18
2022-10-05T00:20:22.926Z,12.14
2022-10-05T00:22:55.938Z,12.13
2022-10-05T00:25:23.549Z,12.16
2022-10-05T00:27:55.708Z,12.22
2022-10-05T00:30:23.885Z,12.23
2022-10-05T00:32:57.285Z,12.23
2022-10-05T00:35:29.244Z,12.25
2022-10-05T00:37:56.693Z,12.24
2022-10-05T00:40:36.737Z,12.22
2022-10-05T00:43:47.279Z,12.22
2022-10-05T00:46:21.239Z,12.20
2022-10-05T00:49:00.098Z,12.14
2022-10-05T00:51:29.041Z,12.11
2022-10-05T00:54:08.896Z,12.04
2022-10-05T00:56:49.100Z,11.97
2022-10-05T00:59:28.650Z,11.89
2022-10-05T01:02:01.050Z,11.87
2022-10-05T01:04:37.844Z,11.85
2022-10-05T01:07:15.997Z,11.78
2022-10-05T01:09:51.158Z,11.74
2022-10-05T01:12:25.466Z,11.73
2022-10-05T01:14:59.999Z,11.69
2022-10-05T01:17:38.838Z,11.65
2022-10-05T01:20:25.845Z,11.58
2022-10-05T01:23:18.141Z,11.51
2022-10-05T01:25:55.526Z,11.45
2022-10-05T01:28:29.855Z,11.36
2022-10-05T01:31:04.219Z,11.29
2022-10-05T01:33:37.901Z,11.18
2022-10-05T01:36:14.805Z,11.12
2022-10-05T01:38:48.215Z,11.11
2022-10-05T01:41:26.552Z,11.07
2022-10-05T01:43:59.341Z,11.07
2022-10-05T01:46:34.789Z,11.07
2022-10-05T01:49:23.248Z,11.05
2022-10-05T01:52:04.290Z,11.08
2022-10-05T01:54:39.954Z,11.13
2022-10-05T01:57:17.162Z,11.16
2022-10-05T02:00:00.522Z,11.13
2022-10-05T02:02:31.090Z,11.05
2022-10-05T02:05:05.201Z,10.99
2022-10-05T02:07:37.809Z,10.95
2022-10-05T02:10:14.600Z,10.94
2022-10-05T02:12:43.039Z,10.94
2022-10-05T02:15:15.060Z,10.87
2022-10-05T02:17:45.938Z,10.88
2022-10-05T02:20:17.282Z,10.89
2022-10-05T02:22:48.290Z,10.88
2022-10-05T02:25:19.174Z,10.88
2022-10-05T02:27:52.226Z,10.84
2022-10-05T02:30:21.233Z,10.78
2022-10-05T02:32:55.477Z,10.75
2022-10-05T02:35:23.305Z,10.74
2022-10-05T02:38:03.943Z,10.71
2022-10-05T02:40:43.842Z,10.73
2022-10-05T02:43:21.076Z,10.74
2022-10-05T02:45:56.139Z,10.74
2022-10-05T02:48:33.866Z,10.73
2022-10-05T02:51:08.043Z,10.74
2022-10-05T02:53:40.886Z,10.66
2022-10-05T02:56:17.681Z,10.54
2022-10-05T02:58:53.114Z,10.48
2022-10-05T03:01:27.900Z,10.41
2022-10-05T03:04:07.772Z,10.32
2022-10-05T03:06:39.716Z,10.22
2022-10-05T03:09:09.315Z,10.18
2022-10-05T03:11:46.925Z,10.23
2022-10-05T03:14:19.263Z,10.22
2022-10-05T03:17:00.725Z,10.24
2022-10-05T03:19:50.463Z,10.29
2022-10-05T03:22:27.403Z,10.34
2022-10-05T03:25:12.846Z,10.37
2022-10-05T03:27:45.136Z,10.40
2022-10-05T03:30:17.331Z,10.43
2022-10-05T03:32:58.507Z,10.43
2022-10-05T03:35:30.848Z,10.45
2022-10-05T03:38:09.732Z,10.45
2022-10-05T03:40:43.283Z,10.44
2022-10-05T03:43:27.782Z,10.43
2022-10-05T03:46:03.380Z,10.42
2022-10-05T03:48:38.418Z,10.40
2022-10-05T03:51:08.538Z,10.43
2022-10-05T03:53:43.579Z,10.34
2022-10-05T03:56:15.463Z,10.31
2022-10-05T03:58:52.913Z,10.30
2022-10-05T04:01:25.876Z,10.29
2022-10-05T04:03:59.171Z,10.29
2022-10-05T04:06:28.053Z,10.27
2022-10-05T04:09:00.485Z,10.27
2022-10-05T04:11:31.941Z,10.26
2022-10-05T04:14:03.337Z,10.24
2022-10-05T04:16:37.270Z,10.18
2022-10-05T04:19:14.293Z,10.14
2022-10-05T04:21:49.801Z,10.07
2022-10-05T04:24:20.191Z,10.04
2022-10-05T04:26:52.305Z,10.00
2022-10-05T04:29:30.874Z,9.96
2022-10-05T04:32:09.308Z,9.92
2022-10-05T04:34:52.619Z,9.89
2022-10-05T04:37:25.549Z,9.88
2022-10-05T04:40:08.732Z,9.89
2022-10-05T04:42:40.246Z,9.95
2022-10-05T04:45:14.610Z,10.02
2022-10-05T04:48:21.876Z,10.04
2022-10-05T04:50:55.155Z,10.10
2022-10-05T04:53:29.513Z,10.10
2022-10-05T04:56:01.397Z,10.11
2022-10-05T04:58:52.864Z,10.23
2022-10-05T05:01:41.968Z,10.34
2022-10-05T05:04:23.530Z,10.43
2022-10-05T05:07:01.511Z,10.49
2022-10-05T05:09:58.978Z,10.53
2022-10-05T05:12:42.013Z,10.62
2022-10-05T05:15:22.872Z,10.72
2022-10-05T05:18:04.625Z,10.85
2022-10-05T05:20:46.755Z,11.08
2022-10-05T05:23:26.209Z,11.23
2022-10-05T05:26:02.537Z,11.40
2022-10-05T05:28:39.226Z,11.66
2022-10-05T05:31:13.182Z,12.11
2022-10-05T05:33:51.478Z,12.61
2022-10-05T05:36:27.399Z,13.07
2022-10-05T05:39:20.497Z,13.56
2022-10-05T05:41:58.149Z,13.89
2022-10-05T05:44:27.886Z,14.04
2022-10-05T05:47:04.792Z,14.24
2022-10-05T05:49:54.822Z,14.66
2022-10-05T05:52:27.939Z,14.89
2022-10-05T05:55:01.154Z,14.96
2022-10-05T05:57:33.519Z,14.98
2022-10-05T06:00:06.166Z,14.94
2022-10-05T06:02:53.885Z,15.21
2022-10-05T06:05:31.094Z,15.44
2022-10-05T06:08:07.069Z,15.68
2022-10-05T06:10:41.944Z,15.82
2022-10-05T06:13:18.095Z,15.85
2022-10-05T06:15:50.369Z,16.01
2022-10-05T06:18:20.494Z,15.90
2022-10-05T06:20:53.269Z,15.88
2022-10-05T06:23:27.580Z,16.14
2022-10-05T06:26:11.590Z,16.28
2022-10-05T06:28:42.487Z,16.33
2022-10-05T06:31:24.097Z,16.50
2022-10-05T06:34:02.062Z,16.84
2022-10-05T06:36:40.312Z,17.02
2022-10-05T06:39:46.549Z,17.15
2022-10-05T06:42:36.084Z,17.35
2022-10-05T06:46:03.569Z,17.52
2022-10-05T06:49:10.894Z,17.75
2022-10-05T06:52:10.906Z,18.03
2022-10-05T06:54:54.490Z,18.41
2022-10-05T06:57:48.527Z,18.51
2022-10-05T07:00:19.829Z,18.45
2022-10-05T07:02:56.249Z,18.54
2022-10-05T07:05:47.992Z,18.71
2022-10-05T07:08:23.190Z,18.77
2022-10-05T07:11:04.158Z,18.88
2022-10-05T07:14:01.908Z,19.24
2022-10-05T07:16:38.395Z,19.18
2022-10-05T07:19:17.966Z,19.26
2022-10-05T07:21:56.147Z,19.29
2022-10-05T07:24:30.707Z,19.52
2022-10-05T07:27:09.813Z,19.72
2022-10-05T07:29:48.818Z,19.42
2022-10-05T07:32:27.783Z,19.33
2022-10-05T07:35:01.613Z,19.62
2022-10-05T07:37:54.047Z,19.83
2022-10-05T07:40:29.308Z,20.46
2022-10-05T07:43:06.248Z,21.05
2022-10-05T07:45:41.220Z,21.47
2022-10-05T07:48:15.928Z,21.86
2022-10-05T07:50:56.806Z,22.23
2022-10-05T07:53:28.779Z,22.34
2022-10-05T07:56:02.192Z,22.62
2022-10-05T07:58:33.862Z,22.58
2022-10-05T08:01:11.198Z,22.64
2022-10-05T08:03:49.483Z,22.85
2022-10-05T08:06:32.138Z,23.21
2022-10-05T08:09:04.413Z,23.54
2022-10-05T08:11:39.285Z,23.84
2022-10-05T08:14:16.760Z,24.10
2022-10-05T08:16:48.521Z,24.33
2022-10-05T08:19:21.374Z,24.53
2022-10-05T08:21:52.446Z,24.69
2022-10-05T08:24:34.326Z,24.82
2022-10-05T08:27:06.436Z,24.92
2022-10-05T08:29:39.572Z,25.00
2022-10-05T08:32:15.322Z,25.19
2022-10-05T08:34:49.756Z,25.35
2022-10-05T08:37:21.254Z,25.45
2022-10-05T08:39:56.341Z,25.57
2022-10-05T08:42:45.406Z,25.46
2022-10-05T08:45:58.983Z,25.46
2022-10-05T08:48:38.577Z,25.26
2022-10-05T08:51:32.529Z,25.20
2022-10-05T08:54:18.684Z,25.45
2022-10-05T08:56:54.087Z,25.76
2022-10-05T08:59:43.854Z,26.03
2022-10-05T09:02:23.023Z,26.24
2022-10-05T09:05:13.212Z,26.40
2022-10-05T09:08:17.649Z,26.54
2022-10-05T09:11:00.679Z,26.66
2022-10-05T09:14:00.544Z,26.54
2022-10-05T09:16:44.636Z,26.38
2022-10-05T09:19:39.350Z,26.55
2022-10-05T09:22:15.660Z,26.67
2022-10-05T09:24:57.230Z,26.70
2022-10-05T09:27:37.099Z,26.66
2022-10-05T09:30:43.637Z,26.54
2022-10-05T09:33:40.932Z,26.80
2022-10-05T09:36:50.271Z,26.90
2022-10-05T09:39:50.954Z,26.11
2022-10-05T09:42:38.758Z,25.55
2022-10-05T09:45:36.839Z,25.43
2022-10-05T09:48:41.573Z,25.65
2022-10-05T09:51:47.912Z,25.80
2022-10-05T09:54:44.881Z,25.83
2022-10-05T09:57:49.361Z,25.55
2022-10-05T10:00:26.492Z,25.39
2022-10-05T10:03:18.169Z,25.03
2022-10-05T10:06:16.179Z,24.73
2022-10-05T10:08:56.490Z,24.61
2022-10-05T10:11:54.418Z,24.90
2022-10-05T10:15:09.949Z,25.34
2022-10-05T10:18:11.233Z,25.56
2022-10-05T10:20:55.294Z,25.49
2022-10-05T10:23:50.438Z,25.44
2022-10-05T10:26:46.222Z,24.89
2022-10-05T10:29:41.239Z,24.23
2022-10-05T10:32:24.534Z,24.28
2022-10-05T10:38:09.080Z,24.80
2022-10-05T10:40:49.522Z,25.28
2022-10-05T10:43:33.973Z,25.62
2022-10-05T10:46:11.034Z,25.89
2022-10-05T10:48:57.617Z,26.26
2022-10-05T10:51:45.082Z,26.34
2022-10-05T10:54:56.642Z,26.36
2022-10-05T10:57:36.337Z,26.55
2022-10-05T11:00:27.110Z,26.91
2022-10-05T11:03:14.767Z,27.10
2022-10-05T11:06:04.140Z,27.32
2022-10-05T11:08:52.360Z,27.34
2022-10-05T11:12:03.091Z,27.29
2022-10-05T11:14:42.751Z,26.85
2022-10-05T11:17:31.732Z,26.80
2022-10-05T11:20:19.325Z,26.74
2022-10-05T11:22:56.403Z,26.60
2022-10-05T11:25:58.097Z,26.24
2022-10-05T11:28:51.551Z,25.78
2022-10-05T11:31:40.467Z,25.37
2022-10-05T11:34:34.436Z,25.03
2022-10-05T11:37:23.427Z,24.76
2022-10-05T11:40:16.734Z,24.56
2022-10-05T11:43:17.083Z,24.34
2022-10-05T11:46:00.745Z,24.14
2022-10-05T11:48:57.517Z,23.94
2022-10-05T11:51:34.270Z,23.75
2022-10-05T11:54:20.934Z,23.55
2022-10-05T11:56:54.761Z,23.41
2022-10-05T11:59:30.278Z,23.53
2022-10-05T12:02:07.728Z,23.93
2022-10-05T12:04:47.547Z,23.76
2022-10-05T12:07:21.253Z,23.68
2022-10-05T12:10:17.491Z,23.78
2022-10-05T12:12:54.895Z,24.19
2022-10-05T12:15:26.913Z,24.70
2022-10-05T12:18:02.319Z,25.09
2022-10-05T12:20:38.095Z,25.30
2022-10-05T12:23:11.897Z,25.63
2022-10-05T12:25:45.650Z,25.82
2022-10-05T12:28:18.060Z,25.99
2022-10-05T12:31:03.881Z,26.25
2022-10-05T12:33:38.305Z,26.44
2022-10-05T12:36:11.787Z,26.16
2022-10-05T12:38:44.261Z,26.06
2022-10-05T12:41:19.688Z,25.99
2022-10-05T12:43:57.833Z,25.68
2022-10-05T12:46:35.053Z,25.34
2022-10-05T12:49:27.223Z,25.12
2022-10-05T12:51:57.993Z,25.17
2022-10-05T12:54:36.090Z,25.36
2022-10-05T12:57:11.045Z,25.55
2022-10-05T12:59:44.701Z,25.64
2022-10-05T13:02:23.737Z,25.35
2022-10-05T13:04:59.698Z,25.00
2022-10-05T13:07:41.248Z,24.66
2022-10-05T13:10:24.728Z,24.49
2022-10-05T13:13:02.314Z,24.72
2022-10-05T13:15:32.631Z,24.98
2022-10-05T13:18:13.892Z,24.95
2022-10-05T13:20:46.334Z,25.05
2022-10-05T13:23:22.991Z,25.04
2022-10-05T13:25:55.422Z,25.22
2022-10-05T13:28:27.451Z,25.44
2022-10-05T13:31:05.694Z,25.59
2022-10-05T13:33:55.768Z,25.72
2022-10-05T13:36:33.032Z,25.80
2022-10-05T13:39:05.808Z,25.74
2022-10-05T13:41:44.105Z,25.67
2022-10-05T13:44:21.402Z,25.67
2022-10-05T13:46:53.163Z,25.64
2022-10-05T13:49:26.515Z,25.58
2022-10-05T13:52:02.945Z,25.50
2022-10-05T13:54:42.366Z,25.39
2022-10-05T13:57:23.106Z,25.29
2022-10-05T13:59:53.837Z,25.25
2022-10-05T14:02:24.571Z,25.20
2022-10-05T14:04:58.501Z,25.14
2022-10-05T14:07:34.083Z,25.05
2022-10-05T14:10:02.510Z,24.99
2022-10-05T14:12:39.342Z,24.94
2022-10-05T14:15:20.551Z,24.94
2022-10-05T14:17:47.717Z,24.90
2022-10-05T14:20:23.047Z,24.87
2022-10-05T14:22:56.454Z,24.81
2022-10-05T14:25:23.769Z,24.67
2022-10-05T14:27:57.363Z,24.55
2022-10-05T14:30:26.874Z,24.37
2022-10-05T14:32:56.833Z,24.23
2022-10-05T14:35:26.024Z,24.09
2022-10-05T14:37:59.702Z,23.94
2022-10-05T14:40:33.186Z,23.75
2022-10-05T14:43:16.295Z,23.66
2022-10-05T14:45:55.113Z,23.45
2022-10-05T14:48:22.843Z,23.30
2022-10-05T14:50:55.126Z,23.14
2022-10-05T14:53:25.105Z,23.03
2022-10-05T14:56:32.305Z,22.97
2022-10-05T14:59:24.282Z,22.79
2022-10-05T15:01:56.384Z,22.62
2022-10-05T15:04:36.979Z,22.48
2022-10-05T15:07:20.547Z,22.28
2022-10-05T15:10:04.388Z,22.12
2022-10-05T15:12:34.754Z,21.96
2022-10-05T15:15:06.450Z,21.81
2022-10-05T15:17:42.534Z,21.65
2022-10-05T15:20:20.426Z,21.53
2022-10-05T15:22:52.470Z,21.42
2022-10-05T15:25:27.554Z,21.28
2022-10-05T15:28:06.726Z,21.15
2022-10-05T15:30:39.812Z,21.02
2022-10-05T15:33:14.525Z,20.87
2022-10-05T15:35:54.506Z,20.76
2022-10-05T15:38:25.800Z,20.63
2022-10-05T15:41:07.172Z,20.50
2022-10-05T15:43:47.553Z,20.38
2022-10-05T15:46:20.817Z,20.25
2022-10-05T15:48:54.355Z,20.13
2022-10-05T15:51:34.499Z,20.01
2022-10-05T15:54:24.538Z,19.89
2022-10-05T15:56:57.711Z,19.72
2022-10-05T15:59:31.347Z,19.60
2022-10-05T16:02:01.585Z,19.49
2022-10-05T16:04:41.501Z,19.40
2022-10-05T16:07:36.055Z,19.28
2022-10-05T16:10:12.009Z,19.16
2022-10-05T16:12:48.783Z,19.04
2022-10-05T16:15:26.335Z,18.92
2022-10-05T16:18:12.214Z,18.78
2022-10-05T16:20:50.050Z,18.65
2022-10-05T16:23:28.133Z,18.56
2022-10-05T16:26:11.640Z,18.45
2022-10-05T16:28:54.290Z,18.31
2022-10-05T16:31:26.592Z,18.20
2022-10-05T16:34:06.580Z,18.04
2022-10-05T16:36:48.771Z,17.93
2022-10-05T16:39:23.472Z,17.80
2022-10-05T16:41:59.344Z,17.68
2022-10-05T16:44:38.648Z,17.60
2022-10-05T16:47:27.638Z,17.54
2022-10-05T16:50:00.344Z,17.47
2022-10-05T16:52:29.012Z,17.36
2022-10-05T16:54:59.186Z,17.28
2022-10-05T16:57:29.544Z,17.21
2022-10-05T17:00:16.114Z,17.15
2022-10-05T17:03:10.249Z,17.07
2022-10-05T17:05:58.800Z,17.01
2022-10-05T17:08:45.482Z,16.92
2022-10-05T17:11:27.047Z,16.73
2022-10-05T17:14:21.250Z,16.58
2022-10-05T17:17:08.113Z,16.35
2022-10-05T17:19:48.876Z,16.20
2022-10-05T17:22:25.635Z,16.06
2022-10-05T17:25:01.818Z,15.96
2022-10-05T17:27:35.250Z,15.93
2022-10-05T17:30:36.216Z,15.86
2022-10-05T17:33:19.992Z,15.75
2022-10-05T17:35:54.263Z,15.67
2022-10-05T17:38:23.389Z,15.62
2022-10-05T17:41:14.409Z,15.55
2022-10-05T17:44:21.365Z,15.48
2022-10-05T17:46:49.954Z,15.43
2022-10-05T17:49:26.888Z,15.39
2022-10-05T17:52:18.286Z,15.35
2022-10-05T17:55:30.668Z,15.30
2022-10-05T17:58:00.519Z,15.23
2022-10-05T18:00:42.116Z,15.18
2022-10-05T18:03:45.822Z,15.14
2022-10-05T18:06:33.327Z,15.04
2022-10-05T18:09:33.178Z,14.97
2022-10-05T18:12:24.322Z,14.93
2022-10-05T18:15:02.545Z,14.82
2022-10-05T18:17:50.725Z,14.75
2022-10-05T18:20:33.035Z,14.69
2022-10-05T18:23:35.383Z,14.62
2022-10-05T18:26:07.237Z,14.55
2022-10-05T18:28:47.514Z,14.48
2022-10-05T18:31:28.917Z,14.43
2022-10-05T18:34:20.816Z,14.36
2022-10-05T18:37:16.691Z,14.27
2022-10-05T18:40:15.986Z,14.22
2022-10-05T18:42:52.977Z,14.12
2022-10-05T18:45:25.621Z,14.05
2022-10-05T18:48:08.007Z,13.97
2022-10-05T18:50:44.458Z,13.89
2022-10-05T18:53:23.815Z,13.85
2022-10-05T18:56:02.288Z,13.83
2022-10-05T18:58:36.778Z,13.77
2022-10-05T19:01:28.418Z,13.72
2022-10-05T19:04:14.030Z,13.66
2022-10-05T19:06:51.346Z,13.61
2022-10-05T19:09:30.462Z,13.51
2022-10-05T19:12:10.348Z,13.43
2022-10-05T19:14:45.394Z,13.37
2022-10-05T19:17:39.195Z,13.32
2022-10-05T19:20:19.199Z,13.26
2022-10-05T19:23:09.336Z,13.17
2022-10-05T19:25:39.562Z,13.12
2022-10-05T19:28:18.222Z,13.07
2022-10-05T19:30:55.991Z,13.06
2022-10-05T19:33:37.450Z,13.00
2022-10-05T19:36:25.201Z,12.91
2022-10-05T19:39:02.059Z,12.87
2022-10-05T19:41:43.212Z,12.80
2022-10-05T19:44:23.162Z,12.78
2022-10-05T19:46:58.546Z,12.78
2022-10-05T19:49:47.442Z,12.74
2022-10-05T19:52:22.491Z,12.69
2022-10-05T19:55:02.083Z,12.66
2022-10-05T19:57:31.686Z,12.60
2022-10-05T20:00:00.473Z,12.57
2022-10-05T20:02:28.034Z,12.55
2022-10-05T20:05:06.905Z,12.53
2022-10-05T20:07:34.505Z,12.52
2022-10-05T20:10:23.159Z,12.47
2022-10-05T20:12:51.630Z,12.39
2022-10-05T20:15:40.664Z,12.35
2022-10-05T20:18:54.729Z,12.29
2022-10-05T20:21:45.575Z,12.24
2022-10-05T20:24:14.404Z,12.19
2022-10-05T20:27:02.393Z,12.15
2022-10-05T20:29:30.421Z,12.11
2022-10-05T20:31:59.133Z,12.06
2022-10-05T20:34:26.322Z,12.03
2022-10-05T20:36:53.461Z,12.02
2022-10-05T20:39:21.444Z,12.00
2022-10-05T20:41:48.549Z,11.97
2022-10-05T20:44:15.908Z,11.93
2022-10-05T20:46:43.212Z,11.86
2022-10-05T20:49:12.639Z,11.82
2022-10-05T20:51:40.254Z,11.78
2022-10-05T20:54:08.125Z,11.69
2022-10-05T20:56:35.389Z,11.63
2022-10-05T20:59:02.571Z,11.59
2022-10-05T21:01:31.923Z,11.56
2022-10-05T21:03:59.237Z,11.53
2022-10-05T21:06:28.668Z,11.47
2022-10-05T21:08:55.900Z,11.41
2022-10-05T21:11:23.158Z,11.36
2022-10-05T21:13:51.253Z,11.35
2022-10-05T21:16:19.577Z,11.28
2022-10-05T21:18:48.778Z,11.22
2022-10-05T21:21:17.408Z,11.18
2022-10-05T21:23:46.556Z,11.17
2022-10-05T21:26:14.836Z,11.14
2022-10-05T21:28:42.129Z,11.11
2022-10-05T21:31:09.729Z,11.11
2022-10-05T21:33:37.123Z,11.08
2022-10-05T21:36:04.645Z,11.07
2022-10-05T21:38:31.885Z,11.06
2022-10-05T21:41:00.597Z,11.02
2022-10-05T21:43:28.168Z,10.98
2022-10-05T21:45:55.878Z,10.92
2022-10-05T21:48:23.435Z,10.85
2022-10-05T21:50:50.593Z,10.80
2022-10-05T21:53:20.557Z,10.74
2022-10-05T21:55:49.525Z,10.74
2022-10-05T21:58:20.703Z,10.75
2022-10-05T22:00:48.341Z,10.74
2022-10-05T22:03:15.769Z,10.72
2022-10-05T22:05:43.051Z,10.69
2022-10-05T22:08:20.619Z,10.66
2022-10-05T22:10:47.846Z,10.62
2022-10-05T22:13:14.945Z,10.59
2022-10-05T22:15:43.808Z,10.53
2022-10-05T22:18:16.814Z,10.47
2022-10-05T22:20:44.418Z,10.47
2022-10-05T22:23:11.545Z,10.43
2022-10-05T22:25:39.497Z,10.41
2022-10-05T22:28:09.818Z,10.39
2022-10-05T22:30:37.665Z,10.34
2022-10-05T22:33:06.147Z,10.33
2022-10-05T22:35:35.900Z,10.33
2022-10-05T22:38:03.400Z,10.31
2022-10-05T22:40:30.870Z,10.26
2022-10-05T22:42:57.948Z,10.23
2022-10-05T22:45:30.342Z,10.18
2022-10-05T22:47:59.440Z,10.13
2022-10-05T22:50:27.939Z,10.12
2022-10-05T22:52:55.082Z,10.11
2022-10-05T22:55:22.320Z,10.10
2022-10-05T22:57:49.375Z,10.07
2022-10-05T23:00:16.722Z,10.03
2022-10-05T23:02:45.407Z,9.98
2022-10-05T23:05:17.196Z,9.94
2022-10-05T23:07:49.012Z,9.91
2022-10-05T23:10:18.078Z,9.88
2022-10-05T23:12:45.477Z,9.86
2022-10-05T23:15:12.582Z,9.81
2022-10-05T23:17:40.488Z,9.75
2022-10-05T23:20:08.345Z,9.70
2022-10-05T23:22:36.969Z,9.69
2022-10-05T23:25:07.233Z,9.64
2022-10-05T23:27:37.679Z,9.61
2022-10-05T23:30:06.894Z,9.56
2022-10-05T23:32:37.959Z,9.55
2022-10-05T23:35:06.348Z,9.52
2022-10-05T23:37:36.854Z,9.49
2022-10-05T23:40:07.457Z,9.44
2022-10-05T23:42:34.695Z,9.40
2022-10-05T23:45:01.991Z,9.35
2022-10-05T23:47:30.314Z,9.31
2022-10-05T23:49:57.540Z,9.31
2022-10-05T23:52:24.670Z,9.29
2022-10-05T23:54:51.839Z,9.30
2022-10-05T23:57:20.570Z,9.26
2022-10-05T23:59:50.273Z,9.25
